sensor_id;sensor_type;location;lat;lon;timestamp;P1;durP1;ratioP1;P2;durP2;ratioP2
73571;SDS011;61854;48.510;-2.770;2022-11-13T00:01:19;15.82;;;10.38;;
73571;SDS011;61854;48.510;-2.770;2022-11-13T00:03:48;16.58;;;9.75;;
73571;SDS011;61854;48.510;-2.770;2022-11-13T00:06:14;20.83;;;10.25;;
73571;SDS011;61854;48.510;-2.770;2022-11-13T00:08:41;18.13;;;10.40;;
73571;SDS011;61854;48.510;-2.770;2022-11-13T00:11:17;23.23;;;11.27;;
73571;SDS011;61854;48.510;-2.770;2022-11-13T00:13:44;17.45;;;11.10;;
73571;SDS011;61854;48.510;-2.770;2022-11-13T00:16:11;20.48;;;11.18;;
73571;SDS011;61854;48.510;-2.770;2022-11-13T00:18:39;17.75;;;11.73;;
73571;SDS011;61854;48.510;-2.770;2022-11-13T00:21:10;17.35;;;10.93;;
73571;SDS011;61854;48.510;-2.770;2022-11-13T00:23:40;24.85;;;12.15;;
73571;SDS011;61854;48.510;-2.770;2022-11-13T00:26:08;14.65;;;10.45;;
73571;SDS011;61854;48.510;-2.770;2022-11-13T00:28:38;22.52;;;12.60;;
73571;SDS011;61854;48.510;-2.770;2022-11-13T00:31:05;18.77;;;11.98;;
73571;SDS011;61854;48.510;-2.770;2022-11-13T00:33:31;18.45;;;12.38;;
73571;SDS011;61854;48.510;-2.770;2022-11-13T00:36:01;22.88;;;11.65;;
73571;SDS011;61854;48.510;-2.770;2022-11-13T00:38:31;18.33;;;12.27;;
73571;SDS011;61854;48.510;-2.770;2022-11-13T00:40:57;26.08;;;12.55;;
73571;SDS011;61854;48.510;-2.770;2022-11-13T00:43:23;24.58;;;12.57;;
73571;SDS011;61854;48.510;-2.770;2022-11-13T00:45:49;19.90;;;12.85;;
73571;SDS011;61854;48.510;-2.770;2022-11-13T00:48:16;20.27;;;13.10;;
73571;SDS011;61854;48.510;-2.770;2022-11-13T00:50:42;27.45;;;12.40;;
73571;SDS011;61854;48.510;-2.770;2022-11-13T00:53:08;22.38;;;13.05;;
73571;SDS011;61854;48.510;-2.770;2022-11-13T00:55:33;22.55;;;13.30;;
73571;SDS011;61854;48.510;-2.770;2022-11-13T00:58:01;18.95;;;12.77;;
73571;SDS011;61854;48.510;-2.770;2022-11-13T01:00:28;20.92;;;12.55;;
73571;SDS011;61854;48.510;-2.770;2022-11-13T01:02:56;21.80;;;13.10;;
73571;SDS011;61854;48.510;-2.770;2022-11-13T01:05:22;22.13;;;13.25;;
73571;SDS011;61854;48.510;-2.770;2022-11-13T01:07:48;21.67;;;12.63;;
73571;SDS011;61854;48.510;-2.770;2022-11-13T01:10:14;16.90;;;12.52;;
73571;SDS011;61854;48.510;-2.770;2022-11-13T01:12:39;22.50;;;12.30;;
73571;SDS011;61854;48.510;-2.770;2022-11-13T01:15:05;18.25;;;10.82;;
73571;SDS011;61854;48.510;-2.770;2022-11-13T01:17:31;16.08;;;10.60;;
73571;SDS011;61854;48.510;-2.770;2022-11-13T01:19:57;18.60;;;10.68;;
73571;SDS011;61854;48.510;-2.770;2022-11-13T01:22:22;14.10;;;10.75;;
73571;SDS011;61854;48.510;-2.770;2022-11-13T01:24:48;23.45;;;10.75;;
73571;SDS011;61854;48.510;-2.770;2022-11-13T01:27:14;18.48;;;9.73;;
73571;SDS011;61854;48.510;-2.770;2022-11-13T01:29:40;12.20;;;9.48;;
73571;SDS011;61854;48.510;-2.770;2022-11-13T01:32:06;12.55;;;9.48;;
73571;SDS011;61854;48.510;-2.770;2022-11-13T01:34:32;16.27;;;10.32;;
73571;SDS011;61854;48.510;-2.770;2022-11-13T01:36:58;14.48;;;8.90;;
73571;SDS011;61854;48.510;-2.770;2022-11-13T01:39:24;18.13;;;9.57;;
73571;SDS011;61854;48.510;-2.770;2022-11-13T01:41:49;16.17;;;8.40;;
73571;SDS011;61854;48.510;-2.770;2022-11-13T01:44:16;15.93;;;8.57;;
73571;SDS011;61854;48.510;-2.770;2022-11-13T01:52:00;16.10;;;8.52;;
73571;SDS011;61854;48.510;-2.770;2022-11-13T01:54:50;14.15;;;8.48;;
73571;SDS011;61854;48.510;-2.770;2022-11-13T01:57:22;18.33;;;9.35;;
73571;SDS011;61854;48.510;-2.770;2022-11-13T01:59:52;16.33;;;8.52;;
73571;SDS011;61854;48.510;-2.770;2022-11-13T02:02:22;13.38;;;8.75;;
73571;SDS011;61854;48.510;-2.770;2022-11-13T02:04:47;15.75;;;8.40;;
73571;SDS011;61854;48.510;-2.770;2022-11-13T02:07:14;13.75;;;7.50;;
73571;SDS011;61854;48.510;-2.770;2022-11-13T02:09:42;12.93;;;7.88;;
73571;SDS011;61854;48.510;-2.770;2022-11-13T02:12:14;12.07;;;7.60;;
73571;SDS011;61854;48.510;-2.770;2022-11-13T02:14:43;13.38;;;8.30;;
73571;SDS011;61854;48.510;-2.770;2022-11-13T02:17:15;10.40;;;8.00;;
73571;SDS011;61854;48.510;-2.770;2022-11-13T02:19:48;12.80;;;7.93;;
73571;SDS011;61854;48.510;-2.770;2022-11-13T02:23:19;12.27;;;7.63;;
73571;SDS011;61854;48.510;-2.770;2022-11-13T02:25:24;9.68;;;7.50;;
73571;SDS011;61854;48.510;-2.770;2022-11-13T02:27:51;14.77;;;7.33;;
73571;SDS011;61854;48.510;-2.770;2022-11-13T02:32:45;11.60;;;7.03;;
73571;SDS011;61854;48.510;-2.770;2022-11-13T02:35:13;17.00;;;7.63;;
73571;SDS011;61854;48.510;-2.770;2022-11-13T02:37:43;12.32;;;7.47;;
73571;SDS011;61854;48.510;-2.770;2022-11-13T02:40:08;16.75;;;7.30;;
73571;SDS011;61854;48.510;-2.770;2022-11-13T02:42:34;15.95;;;7.30;;
73571;SDS011;61854;48.510;-2.770;2022-11-13T02:45:00;12.50;;;7.32;;
73571;SDS011;61854;48.510;-2.770;2022-11-13T02:47:26;15.55;;;7.53;;
73571;SDS011;61854;48.510;-2.770;2022-11-13T02:49:52;13.85;;;7.10;;
73571;SDS011;61854;48.510;-2.770;2022-11-13T02:52:17;11.60;;;7.18;;
73571;SDS011;61854;48.510;-2.770;2022-11-13T02:54:43;12.55;;;7.30;;
73571;SDS011;61854;48.510;-2.770;2022-11-13T02:57:09;13.45;;;7.47;;
73571;SDS011;61854;48.510;-2.770;2022-11-13T02:59:35;13.20;;;8.00;;
73571;SDS011;61854;48.510;-2.770;2022-11-13T03:02:00;11.88;;;7.97;;
73571;SDS011;61854;48.510;-2.770;2022-11-13T03:04:26;11.10;;;7.70;;
73571;SDS011;61854;48.510;-2.770;2022-11-13T03:06:52;13.10;;;8.05;;
73571;SDS011;61854;48.510;-2.770;2022-11-13T03:09:17;19.30;;;7.97;;
73571;SDS011;61854;48.510;-2.770;2022-11-13T03:11:43;12.85;;;7.38;;
73571;SDS011;61854;48.510;-2.770;2022-11-13T03:14:08;12.63;;;7.93;;
73571;SDS011;61854;48.510;-2.770;2022-11-13T03:16:34;17.45;;;8.52;;
73571;SDS011;61854;48.510;-2.770;2022-11-13T03:19:00;15.98;;;8.82;;
73571;SDS011;61854;48.510;-2.770;2022-11-13T03:21:26;15.02;;;8.68;;
73571;SDS011;61854;48.510;-2.770;2022-11-13T03:23:52;14.23;;;8.95;;
73571;SDS011;61854;48.510;-2.770;2022-11-13T03:26:18;15.30;;;8.45;;
73571;SDS011;61854;48.510;-2.770;2022-11-13T03:28:44;12.55;;;8.68;;
73571;SDS011;61854;48.510;-2.770;2022-11-13T03:31:10;14.25;;;9.10;;
73571;SDS011;61854;48.510;-2.770;2022-11-13T03:33:35;15.27;;;9.60;;
73571;SDS011;61854;48.510;-2.770;2022-11-13T03:36:01;16.20;;;10.25;;
73571;SDS011;61854;48.510;-2.770;2022-11-13T03:38:26;19.67;;;10.30;;
73571;SDS011;61854;48.510;-2.770;2022-11-13T03:40:52;16.70;;;10.23;;
73571;SDS011;61854;48.510;-2.770;2022-11-13T03:43:18;19.77;;;10.77;;
73571;SDS011;61854;48.510;-2.770;2022-11-13T03:45:44;17.92;;;10.48;;
73571;SDS011;61854;48.510;-2.770;2022-11-13T03:48:11;15.18;;;11.07;;
73571;SDS011;61854;48.510;-2.770;2022-11-13T03:50:38;18.67;;;10.50;;
73571;SDS011;61854;48.510;-2.770;2022-11-13T03:53:04;16.23;;;11.23;;
73571;SDS011;61854;48.510;-2.770;2022-11-13T03:55:30;16.27;;;11.43;;
73571;SDS011;61854;48.510;-2.770;2022-11-13T03:57:55;16.17;;;11.05;;
73571;SDS011;61854;48.510;-2.770;2022-11-13T04:00:21;18.60;;;11.75;;
73571;SDS011;61854;48.510;-2.770;2022-11-13T04:02:47;16.27;;;11.15;;
73571;SDS011;61854;48.510;-2.770;2022-11-13T04:05:12;16.15;;;11.80;;
73571;SDS011;61854;48.510;-2.770;2022-11-13T04:07:38;18.13;;;11.88;;
73571;SDS011;61854;48.510;-2.770;2022-11-13T04:10:04;18.90;;;13.07;;
73571;SDS011;61854;48.510;-2.770;2022-11-13T04:12:30;18.25;;;12.02;;
73571;SDS011;61854;48.510;-2.770;2022-11-13T04:14:58;19.23;;;11.85;;
73571;SDS011;61854;48.510;-2.770;2022-11-13T04:17:24;21.67;;;12.85;;
73571;SDS011;61854;48.510;-2.770;2022-11-13T04:19:49;20.15;;;12.63;;
73571;SDS011;61854;48.510;-2.770;2022-11-13T04:22:15;18.80;;;12.48;;
73571;SDS011;61854;48.510;-2.770;2022-11-13T04:24:41;20.67;;;12.82;;
73571;SDS011;61854;48.510;-2.770;2022-11-13T04:27:06;22.15;;;13.43;;
73571;SDS011;61854;48.510;-2.770;2022-11-13T04:29:32;22.00;;;12.98;;
73571;SDS011;61854;48.510;-2.770;2022-11-13T04:31:57;21.15;;;12.65;;
73571;SDS011;61854;48.510;-2.770;2022-11-13T04:34:23;23.33;;;12.95;;
73571;SDS011;61854;48.510;-2.770;2022-11-13T04:36:49;19.98;;;13.18;;
73571;SDS011;61854;48.510;-2.770;2022-11-13T04:39:14;18.10;;;11.70;;
73571;SDS011;61854;48.510;-2.770;2022-11-13T04:41:40;21.33;;;11.60;;
73571;SDS011;61854;48.510;-2.770;2022-11-13T04:44:24;18.67;;;12.27;;
73571;SDS011;61854;48.510;-2.770;2022-11-13T04:46:49;19.55;;;11.98;;
73571;SDS011;61854;48.510;-2.770;2022-11-13T04:49:15;18.05;;;11.88;;
73571;SDS011;61854;48.510;-2.770;2022-11-13T04:51:41;18.90;;;12.60;;
73571;SDS011;61854;48.510;-2.770;2022-11-13T04:54:06;16.02;;;12.52;;
73571;SDS011;61854;48.510;-2.770;2022-11-13T04:56:32;19.15;;;11.90;;
73571;SDS011;61854;48.510;-2.770;2022-11-13T04:58:57;23.38;;;13.98;;
73571;SDS011;61854;48.510;-2.770;2022-11-13T05:01:23;23.13;;;14.48;;
73571;SDS011;61854;48.510;-2.770;2022-11-13T05:03:49;21.50;;;13.25;;
73571;SDS011;61854;48.510;-2.770;2022-11-13T05:06:14;21.95;;;13.20;;
73571;SDS011;61854;48.510;-2.770;2022-11-13T05:08:40;20.85;;;12.80;;
73571;SDS011;61854;48.510;-2.770;2022-11-13T05:11:05;21.77;;;12.00;;
73571;SDS011;61854;48.510;-2.770;2022-11-13T05:13:32;17.70;;;11.60;;
73571;SDS011;61854;48.510;-2.770;2022-11-13T05:15:59;18.15;;;12.55;;
73571;SDS011;61854;48.510;-2.770;2022-11-13T05:18:31;20.95;;;11.50;;
73571;SDS011;61854;48.510;-2.770;2022-11-13T05:20:57;21.85;;;12.07;;
73571;SDS011;61854;48.510;-2.770;2022-11-13T05:23:23;20.40;;;13.10;;
73571;SDS011;61854;48.510;-2.770;2022-11-13T05:25:49;22.05;;;12.60;;
73571;SDS011;61854;48.510;-2.770;2022-11-13T05:28:15;19.13;;;13.70;;
73571;SDS011;61854;48.510;-2.770;2022-11-13T05:30:41;25.70;;;13.23;;
73571;SDS011;61854;48.510;-2.770;2022-11-13T05:33:07;20.98;;;13.05;;
73571;SDS011;61854;48.510;-2.770;2022-11-13T05:35:33;21.20;;;12.48;;
73571;SDS011;61854;48.510;-2.770;2022-11-13T05:37:59;18.90;;;11.73;;
73571;SDS011;61854;48.510;-2.770;2022-11-13T05:40:26;20.95;;;13.38;;
73571;SDS011;61854;48.510;-2.770;2022-11-13T05:42:53;20.13;;;12.60;;
73571;SDS011;61854;48.510;-2.770;2022-11-13T05:45:19;18.27;;;11.82;;
73571;SDS011;61854;48.510;-2.770;2022-11-13T05:47:44;18.10;;;12.52;;
73571;SDS011;61854;48.510;-2.770;2022-11-13T05:50:10;17.58;;;12.38;;
73571;SDS011;61854;48.510;-2.770;2022-11-13T05:52:36;19.77;;;13.77;;
73571;SDS011;61854;48.510;-2.770;2022-11-13T05:55:01;22.70;;;15.07;;
73571;SDS011;61854;48.510;-2.770;2022-11-13T05:57:27;18.17;;;13.15;;
73571;SDS011;61854;48.510;-2.770;2022-11-13T05:59:53;21.80;;;11.40;;
73571;SDS011;61854;48.510;-2.770;2022-11-13T06:02:19;15.00;;;11.82;;
73571;SDS011;61854;48.510;-2.770;2022-11-13T06:04:44;16.85;;;10.88;;
73571;SDS011;61854;48.510;-2.770;2022-11-13T06:07:11;20.73;;;11.52;;
73571;SDS011;61854;48.510;-2.770;2022-11-13T06:09:38;13.75;;;9.98;;
73571;SDS011;61854;48.510;-2.770;2022-11-13T06:12:03;13.35;;;8.60;;
73571;SDS011;61854;48.510;-2.770;2022-11-13T06:14:29;15.10;;;8.60;;
73571;SDS011;61854;48.510;-2.770;2022-11-13T06:16:55;14.63;;;9.15;;
73571;SDS011;61854;48.510;-2.770;2022-11-13T06:19:20;15.32;;;7.95;;
73571;SDS011;61854;48.510;-2.770;2022-11-13T06:21:46;13.43;;;7.93;;
73571;SDS011;61854;48.510;-2.770;2022-11-13T06:24:12;14.65;;;8.15;;
73571;SDS011;61854;48.510;-2.770;2022-11-13T06:26:37;12.55;;;8.32;;
73571;SDS011;61854;48.510;-2.770;2022-11-13T06:29:04;15.82;;;8.30;;
73571;SDS011;61854;48.510;-2.770;2022-11-13T06:31:32;13.23;;;8.25;;
73571;SDS011;61854;48.510;-2.770;2022-11-13T06:33:59;13.07;;;8.27;;
73571;SDS011;61854;48.510;-2.770;2022-11-13T06:36:26;13.63;;;9.00;;
73571;SDS011;61854;48.510;-2.770;2022-11-13T06:41:20;13.40;;;8.68;;
73571;SDS011;61854;48.510;-2.770;2022-11-13T06:43:47;14.17;;;8.87;;
73571;SDS011;61854;48.510;-2.770;2022-11-13T06:46:14;14.32;;;8.80;;
73571;SDS011;61854;48.510;-2.770;2022-11-13T06:48:44;14.98;;;8.57;;
73571;SDS011;61854;48.510;-2.770;2022-11-13T06:51:14;15.32;;;8.00;;
73571;SDS011;61854;48.510;-2.770;2022-11-13T06:53:45;14.30;;;9.13;;
73571;SDS011;61854;48.510;-2.770;2022-11-13T06:56:11;14.30;;;8.27;;
73571;SDS011;61854;48.510;-2.770;2022-11-13T06:58:37;12.80;;;8.18;;
73571;SDS011;61854;48.510;-2.770;2022-11-13T07:01:04;17.30;;;8.15;;
73571;SDS011;61854;48.510;-2.770;2022-11-13T07:03:31;14.20;;;8.00;;
73571;SDS011;61854;48.510;-2.770;2022-11-13T07:05:59;14.77;;;8.20;;
73571;SDS011;61854;48.510;-2.770;2022-11-13T07:08:28;16.95;;;8.82;;
73571;SDS011;61854;48.510;-2.770;2022-11-13T07:10:54;15.05;;;9.10;;
73571;SDS011;61854;48.510;-2.770;2022-11-13T07:13:21;14.55;;;9.07;;
73571;SDS011;61854;48.510;-2.770;2022-11-13T07:15:48;12.20;;;8.73;;
73571;SDS011;61854;48.510;-2.770;2022-11-13T07:18:13;15.10;;;9.57;;
73571;SDS011;61854;48.510;-2.770;2022-11-13T07:20:39;16.23;;;9.82;;
73571;SDS011;61854;48.510;-2.770;2022-11-13T07:23:05;15.52;;;9.48;;
73571;SDS011;61854;48.510;-2.770;2022-11-13T07:25:30;15.13;;;9.52;;
73571;SDS011;61854;48.510;-2.770;2022-11-13T07:27:57;16.00;;;10.98;;
73571;SDS011;61854;48.510;-2.770;2022-11-13T07:30:23;16.70;;;10.15;;
73571;SDS011;61854;48.510;-2.770;2022-11-13T07:32:48;16.15;;;10.10;;
73571;SDS011;61854;48.510;-2.770;2022-11-13T07:35:14;15.60;;;10.52;;
73571;SDS011;61854;48.510;-2.770;2022-11-13T07:37:40;15.85;;;9.52;;
73571;SDS011;61854;48.510;-2.770;2022-11-13T07:40:07;16.83;;;10.02;;
73571;SDS011;61854;48.510;-2.770;2022-11-13T07:42:33;13.20;;;10.27;;
73571;SDS011;61854;48.510;-2.770;2022-11-13T07:44:59;19.45;;;11.32;;
73571;SDS011;61854;48.510;-2.770;2022-11-13T07:47:25;16.55;;;10.40;;
73571;SDS011;61854;48.510;-2.770;2022-11-13T07:49:50;17.17;;;10.38;;
73571;SDS011;61854;48.510;-2.770;2022-11-13T07:52:16;17.48;;;10.68;;
73571;SDS011;61854;48.510;-2.770;2022-11-13T07:54:42;16.27;;;9.90;;
73571;SDS011;61854;48.510;-2.770;2022-11-13T07:57:07;17.63;;;9.60;;
73571;SDS011;61854;48.510;-2.770;2022-11-13T07:59:33;12.35;;;8.27;;
73571;SDS011;61854;48.510;-2.770;2022-11-13T08:01:59;10.70;;;8.18;;
73571;SDS011;61854;48.510;-2.770;2022-11-13T08:04:25;14.40;;;7.97;;
73571;SDS011;61854;48.510;-2.770;2022-11-13T08:06:50;11.35;;;6.90;;
73571;SDS011;61854;48.510;-2.770;2022-11-13T08:09:16;13.30;;;6.93;;
73571;SDS011;61854;48.510;-2.770;2022-11-13T08:11:42;10.35;;;6.22;;
73571;SDS011;61854;48.510;-2.770;2022-11-13T08:14:09;10.32;;;6.25;;
73571;SDS011;61854;48.510;-2.770;2022-11-13T08:16:34;11.10;;;6.43;;
73571;SDS011;61854;48.510;-2.770;2022-11-13T08:19:01;14.32;;;6.07;;
73571;SDS011;61854;48.510;-2.770;2022-11-13T08:21:27;12.98;;;6.80;;
73571;SDS011;61854;48.510;-2.770;2022-11-13T08:23:53;9.55;;;6.28;;
73571;SDS011;61854;48.510;-2.770;2022-11-13T08:26:18;11.43;;;6.50;;
73571;SDS011;61854;48.510;-2.770;2022-11-13T08:28:44;9.45;;;7.03;;
73571;SDS011;61854;48.510;-2.770;2022-11-13T08:31:11;11.15;;;7.10;;
73571;SDS011;61854;48.510;-2.770;2022-11-13T08:33:39;10.50;;;7.38;;
73571;SDS011;61854;48.510;-2.770;2022-11-13T08:36:05;11.43;;;7.05;;
73571;SDS011;61854;48.510;-2.770;2022-11-13T08:38:31;11.75;;;6.93;;
73571;SDS011;61854;48.510;-2.770;2022-11-13T08:40:57;12.90;;;6.43;;
73571;SDS011;61854;48.510;-2.770;2022-11-13T08:43:23;10.77;;;6.97;;
73571;SDS011;61854;48.510;-2.770;2022-11-13T08:45:49;8.57;;;6.32;;
73571;SDS011;61854;48.510;-2.770;2022-11-13T08:48:15;10.30;;;6.80;;
73571;SDS011;61854;48.510;-2.770;2022-11-13T08:50:40;12.18;;;6.53;;
73571;SDS011;61854;48.510;-2.770;2022-11-13T08:53:06;12.27;;;7.10;;
73571;SDS011;61854;48.510;-2.770;2022-11-13T08:55:32;10.00;;;6.40;;
73571;SDS011;61854;48.510;-2.770;2022-11-13T08:57:59;12.15;;;6.63;;
73571;SDS011;61854;48.510;-2.770;2022-11-13T09:00:26;11.05;;;6.78;;
73571;SDS011;61854;48.510;-2.770;2022-11-13T09:02:53;11.77;;;6.55;;
73571;SDS011;61854;48.510;-2.770;2022-11-13T09:05:22;12.40;;;6.03;;
73571;SDS011;61854;48.510;-2.770;2022-11-13T09:07:49;10.65;;;6.20;;
73571;SDS011;61854;48.510;-2.770;2022-11-13T09:10:18;8.45;;;5.95;;
73571;SDS011;61854;48.510;-2.770;2022-11-13T09:12:44;9.70;;;5.95;;
73571;SDS011;61854;48.510;-2.770;2022-11-13T09:15:10;9.27;;;5.55;;
73571;SDS011;61854;48.510;-2.770;2022-11-13T09:17:36;7.55;;;5.50;;
73571;SDS011;61854;48.510;-2.770;2022-11-13T09:20:02;10.25;;;5.00;;
73571;SDS011;61854;48.510;-2.770;2022-11-13T09:22:28;9.43;;;5.03;;
73571;SDS011;61854;48.510;-2.770;2022-11-13T09:24:53;8.90;;;4.30;;
73571;SDS011;61854;48.510;-2.770;2022-11-13T09:27:19;10.88;;;5.28;;
73571;SDS011;61854;48.510;-2.770;2022-11-13T09:29:45;9.15;;;5.15;;
73571;SDS011;61854;48.510;-2.770;2022-11-13T09:32:10;7.43;;;4.70;;
73571;SDS011;61854;48.510;-2.770;2022-11-13T09:34:36;10.13;;;5.20;;
73571;SDS011;61854;48.510;-2.770;2022-11-13T09:37:02;9.82;;;4.43;;
73571;SDS011;61854;48.510;-2.770;2022-11-13T09:39:27;8.73;;;4.85;;
73571;SDS011;61854;48.510;-2.770;2022-11-13T09:41:55;9.95;;;5.05;;
73571;SDS011;61854;48.510;-2.770;2022-11-13T09:47:20;6.55;;;3.78;;
73571;SDS011;61854;48.510;-2.770;2022-11-13T09:50:39;7.13;;;4.38;;
73571;SDS011;61854;48.510;-2.770;2022-11-13T09:52:45;9.70;;;5.03;;
73571;SDS011;61854;48.510;-2.770;2022-11-13T09:55:12;10.07;;;4.47;;
73571;SDS011;61854;48.510;-2.770;2022-11-13T09:58:15;8.25;;;4.45;;
73571;SDS011;61854;48.510;-2.770;2022-11-13T10:00:49;8.07;;;4.20;;
73571;SDS011;61854;48.510;-2.770;2022-11-13T10:14:25;11.73;;;3.90;;
73571;SDS011;61854;48.510;-2.770;2022-11-13T10:19:55;8.38;;;4.30;;
73571;SDS011;61854;48.510;-2.770;2022-11-13T10:24:57;6.43;;;3.83;;
73571;SDS011;61854;48.510;-2.770;2022-11-13T10:27:28;9.73;;;4.10;;
73571;SDS011;61854;48.510;-2.770;2022-11-13T10:29:55;9.15;;;3.80;;
73571;SDS011;61854;48.510;-2.770;2022-11-13T10:32:25;8.40;;;4.18;;
73571;SDS011;61854;48.510;-2.770;2022-11-13T10:34:59;9.25;;;4.43;;
73571;SDS011;61854;48.510;-2.770;2022-11-13T10:40:28;10.40;;;4.35;;
73571;SDS011;61854;48.510;-2.770;2022-11-13T10:45:40;11.60;;;4.20;;
73571;SDS011;61854;48.510;-2.770;2022-11-13T10:48:20;8.32;;;4.07;;
73571;SDS011;61854;48.510;-2.770;2022-11-13T10:53:49;8.80;;;3.78;;
73571;SDS011;61854;48.510;-2.770;2022-11-13T10:58:58;14.27;;;3.55;;
73571;SDS011;61854;48.510;-2.770;2022-11-13T11:01:25;7.78;;;3.83;;
73571;SDS011;61854;48.510;-2.770;2022-11-13T11:03:51;8.20;;;3.83;;
73571;SDS011;61854;48.510;-2.770;2022-11-13T11:06:16;9.13;;;3.95;;
73571;SDS011;61854;48.510;-2.770;2022-11-13T11:08:42;6.47;;;4.00;;
73571;SDS011;61854;48.510;-2.770;2022-11-13T11:11:15;7.93;;;3.88;;
73571;SDS011;61854;48.510;-2.770;2022-11-13T11:14:21;9.82;;;4.10;;
73571;SDS011;61854;48.510;-2.770;2022-11-13T11:16:53;6.93;;;3.90;;
73571;SDS011;61854;48.510;-2.770;2022-11-13T11:19:21;6.75;;;3.72;;
73571;SDS011;61854;48.510;-2.770;2022-11-13T11:21:54;8.20;;;3.53;;
73571;SDS011;61854;48.510;-2.770;2022-11-13T11:24:39;7.30;;;3.72;;
73571;SDS011;61854;48.510;-2.770;2022-11-13T11:27:12;10.40;;;3.88;;
73571;SDS011;61854;48.510;-2.770;2022-11-13T11:30:01;8.95;;;3.10;;
73571;SDS011;61854;48.510;-2.770;2022-11-13T11:32:31;7.22;;;3.47;;
73571;SDS011;61854;48.510;-2.770;2022-11-13T11:37:49;9.35;;;3.85;;
73571;SDS011;61854;48.510;-2.770;2022-11-13T11:43:02;8.05;;;3.00;;
73571;SDS011;61854;48.510;-2.770;2022-11-13T11:45:43;9.25;;;3.45;;
73571;SDS011;61854;48.510;-2.770;2022-11-13T11:48:14;10.70;;;3.33;;
73571;SDS011;61854;48.510;-2.770;2022-11-13T11:56:33;13.55;;;3.47;;
73571;SDS011;61854;48.510;-2.770;2022-11-13T11:59:36;7.55;;;3.70;;
73571;SDS011;61854;48.510;-2.770;2022-11-13T12:13:12;7.07;;;3.13;;
73571;SDS011;61854;48.510;-2.770;2022-11-13T12:18:34;10.13;;;3.38;;
73571;SDS011;61854;48.510;-2.770;2022-11-13T12:23:57;7.93;;;3.33;;
73571;SDS011;61854;48.510;-2.770;2022-11-13T12:26:51;8.32;;;3.60;;
73571;SDS011;61854;48.510;-2.770;2022-11-13T12:32:28;12.05;;;3.13;;
73571;SDS011;61854;48.510;-2.770;2022-11-13T12:35:16;9.93;;;3.03;;
73571;SDS011;61854;48.510;-2.770;2022-11-13T12:37:50;7.20;;;2.90;;
73571;SDS011;61854;48.510;-2.770;2022-11-13T12:46:14;7.38;;;2.67;;
73571;SDS011;61854;48.510;-2.770;2022-11-13T12:48:41;6.15;;;2.28;;
73571;SDS011;61854;48.510;-2.770;2022-11-13T12:51:12;6.47;;;2.50;;
73571;SDS011;61854;48.510;-2.770;2022-11-13T12:56:28;10.57;;;2.72;;
73571;SDS011;61854;48.510;-2.770;2022-11-13T13:01:49;7.63;;;2.75;;
73571;SDS011;61854;48.510;-2.770;2022-11-13T13:15:39;7.53;;;2.88;;
73571;SDS011;61854;48.510;-2.770;2022-11-13T13:20:46;6.38;;;2.92;;
73571;SDS011;61854;48.510;-2.770;2022-11-13T13:23:28;6.47;;;2.70;;
73571;SDS011;61854;48.510;-2.770;2022-11-13T13:28:52;7.22;;;2.78;;
73571;SDS011;61854;48.510;-2.770;2022-11-13T13:40:00;8.35;;;2.80;;
73571;SDS011;61854;48.510;-2.770;2022-11-13T13:42:45;6.07;;;2.60;;
73571;SDS011;61854;48.510;-2.770;2022-11-13T13:45:26;7.72;;;2.92;;
73571;SDS011;61854;48.510;-2.770;2022-11-13T13:48:11;5.50;;;2.55;;
73571;SDS011;61854;48.510;-2.770;2022-11-13T13:50:41;8.02;;;2.88;;
73571;SDS011;61854;48.510;-2.770;2022-11-13T13:53:17;7.85;;;2.90;;
73571;SDS011;61854;48.510;-2.770;2022-11-13T13:55:54;7.78;;;2.63;;
73571;SDS011;61854;48.510;-2.770;2022-11-13T13:58:27;6.72;;;2.50;;
73571;SDS011;61854;48.510;-2.770;2022-11-13T14:00:55;7.40;;;2.40;;
73571;SDS011;61854;48.510;-2.770;2022-11-13T14:03:25;8.63;;;2.22;;
73571;SDS011;61854;48.510;-2.770;2022-11-13T14:05:53;6.07;;;2.60;;
73571;SDS011;61854;48.510;-2.770;2022-11-13T14:08:25;7.63;;;2.67;;
73571;SDS011;61854;48.510;-2.770;2022-11-13T14:10:51;9.55;;;2.58;;
73571;SDS011;61854;48.510;-2.770;2022-11-13T14:13:35;8.75;;;3.45;;
73571;SDS011;61854;48.510;-2.770;2022-11-13T14:16:02;8.32;;;2.38;;
73571;SDS011;61854;48.510;-2.770;2022-11-13T14:18:30;5.25;;;2.30;;
73571;SDS011;61854;48.510;-2.770;2022-11-13T14:20:57;5.93;;;2.70;;
73571;SDS011;61854;48.510;-2.770;2022-11-13T14:25:54;9.32;;;2.85;;
73571;SDS011;61854;48.510;-2.770;2022-11-13T14:28:22;8.77;;;2.75;;
73571;SDS011;61854;48.510;-2.770;2022-11-13T14:30:56;6.70;;;2.58;;
73571;SDS011;61854;48.510;-2.770;2022-11-13T14:33:33;5.72;;;2.40;;
73571;SDS011;61854;48.510;-2.770;2022-11-13T14:36:00;8.88;;;2.60;;
73571;SDS011;61854;48.510;-2.770;2022-11-13T14:38:27;8.15;;;2.40;;
73571;SDS011;61854;48.510;-2.770;2022-11-13T14:40:57;10.55;;;2.78;;
73571;SDS011;61854;48.510;-2.770;2022-11-13T14:43:30;5.57;;;2.60;;
73571;SDS011;61854;48.510;-2.770;2022-11-13T14:45:58;7.65;;;2.55;;
73571;SDS011;61854;48.510;-2.770;2022-11-13T14:48:27;6.30;;;2.85;;
73571;SDS011;61854;48.510;-2.770;2022-11-13T14:53:25;6.38;;;2.60;;
73571;SDS011;61854;48.510;-2.770;2022-11-13T14:56:02;5.70;;;3.08;;
73571;SDS011;61854;48.510;-2.770;2022-11-13T14:58:36;10.23;;;3.10;;
73571;SDS011;61854;48.510;-2.770;2022-11-13T15:03:40;5.55;;;2.80;;
73571;SDS011;61854;48.510;-2.770;2022-11-13T15:06:14;8.32;;;2.90;;
73571;SDS011;61854;48.510;-2.770;2022-11-13T15:08:49;7.03;;;3.03;;
73571;SDS011;61854;48.510;-2.770;2022-11-13T15:11:19;8.20;;;3.17;;
73571;SDS011;61854;48.510;-2.770;2022-11-13T15:13:46;8.88;;;2.75;;
73571;SDS011;61854;48.510;-2.770;2022-11-13T15:16:13;7.35;;;3.10;;
73571;SDS011;61854;48.510;-2.770;2022-11-13T15:18:57;6.57;;;3.00;;
73571;SDS011;61854;48.510;-2.770;2022-11-13T15:21:28;9.37;;;3.20;;
73571;SDS011;61854;48.510;-2.770;2022-11-13T15:23:55;11.68;;;3.75;;
73571;SDS011;61854;48.510;-2.770;2022-11-13T15:26:21;10.02;;;3.00;;
73571;SDS011;61854;48.510;-2.770;2022-11-13T15:28:47;8.77;;;3.10;;
73571;SDS011;61854;48.510;-2.770;2022-11-13T15:31:31;7.57;;;2.67;;
73571;SDS011;61854;48.510;-2.770;2022-11-13T15:34:09;8.93;;;3.22;;
73571;SDS011;61854;48.510;-2.770;2022-11-13T15:36:39;10.57;;;3.63;;
73571;SDS011;61854;48.510;-2.770;2022-11-13T15:39:06;8.25;;;3.40;;
73571;SDS011;61854;48.510;-2.770;2022-11-13T15:41:32;9.85;;;3.42;;
73571;SDS011;61854;48.510;-2.770;2022-11-13T15:44:00;9.77;;;3.35;;
73571;SDS011;61854;48.510;-2.770;2022-11-13T15:46:31;10.32;;;3.17;;
73571;SDS011;61854;48.510;-2.770;2022-11-13T15:48:57;9.75;;;3.50;;
73571;SDS011;61854;48.510;-2.770;2022-11-13T15:51:35;10.93;;;3.30;;
73571;SDS011;61854;48.510;-2.770;2022-11-13T15:54:26;9.23;;;3.65;;
73571;SDS011;61854;48.510;-2.770;2022-11-13T15:56:55;12.23;;;4.38;;
73571;SDS011;61854;48.510;-2.770;2022-11-13T15:59:20;9.75;;;4.00;;
73571;SDS011;61854;48.510;-2.770;2022-11-13T16:01:46;11.73;;;4.20;;
73571;SDS011;61854;48.510;-2.770;2022-11-13T16:04:12;11.45;;;4.55;;
73571;SDS011;61854;48.510;-2.770;2022-11-13T16:06:40;10.68;;;4.15;;
73571;SDS011;61854;48.510;-2.770;2022-11-13T16:09:08;12.57;;;4.95;;
73571;SDS011;61854;48.510;-2.770;2022-11-13T16:11:37;10.70;;;4.18;;
73571;SDS011;61854;48.510;-2.770;2022-11-13T16:14:03;9.95;;;4.60;;
73571;SDS011;61854;48.510;-2.770;2022-11-13T16:16:31;11.82;;;4.82;;
73571;SDS011;61854;48.510;-2.770;2022-11-13T16:18:59;10.18;;;4.80;;
73571;SDS011;61854;48.510;-2.770;2022-11-13T16:21:25;11.93;;;4.80;;
73571;SDS011;61854;48.510;-2.770;2022-11-13T16:23:51;14.55;;;4.80;;
73571;SDS011;61854;48.510;-2.770;2022-11-13T16:26:18;12.85;;;5.43;;